sensor_id;sensor_type;location;lat;lon;timestamp;pressure;altitude;pressure_sealevel;temperature;humidity
74045;BME280;62389;51.412;5.436;2023-06-22T00:00:39;101741.41;;;20.04;67.63
74045;BME280;62389;51.412;5.436;2023-06-22T00:03:07;101741.41;;;20.04;66.14
74045;BME280;62389;51.412;5.436;2023-06-22T00:05:32;101753.72;;;20.05;67.30
74045;BME280;62389;51.412;5.436;2023-06-22T00:07:57;101744.69;;;20.08;68.10
74045;BME280;62389;51.412;5.436;2023-06-22T00:10:23;101751.09;;;20.05;68.40
74045;BME280;62389;51.412;5.436;2023-06-22T00:12:48;101751.94;;;20.06;68.34
74045;BME280;62389;51.412;5.436;2023-06-22T00:15:13;101757.34;;;20.04;69.32
74045;BME280;62389;51.412;5.436;2023-06-22T00:17:39;101755.66;;;20.03;69.88
74045;BME280;62389;51.412;5.436;2023-06-22T00:20:05;101746.94;;;20.01;70.25
74045;BME280;62389;51.412;5.436;2023-06-22T00:22:32;101745.66;;;19.94;68.93
74045;BME280;62389;51.412;5.436;2023-06-22T00:25:04;101754.59;;;19.93;71.15
74045;BME280;62389;51.412;5.436;2023-06-22T00:27:30;101748.53;;;19.91;70.77
74045;BME280;62389;51.412;5.436;2023-06-22T00:29:55;101751.38;;;19.88;70.49
74045;BME280;62389;51.412;5.436;2023-06-22T00:32:21;101745.22;;;19.87;70.42
74045;BME280;62389;51.412;5.436;2023-06-22T00:34:46;101746.41;;;19.83;71.72
74045;BME280;62389;51.412;5.436;2023-06-22T00:37:11;101743.84;;;19.82;70.42
74045;BME280;62389;51.412;5.436;2023-06-22T00:39:37;101735.03;;;19.81;70.42
74045;BME280;62389;51.412;5.436;2023-06-22T00:42:02;101744.78;;;19.81;71.20
74045;BME280;62389;51.412;5.436;2023-06-22T00:44:28;101730.78;;;19.79;70.44
74045;BME280;62389;51.412;5.436;2023-06-22T00:46:53;101729.06;;;19.78;72.00
74045;BME280;62389;51.412;5.436;2023-06-22T00:49:19;101730.13;;;19.75;71.85
74045;BME280;62389;51.412;5.436;2023-06-22T00:51:44;101730.25;;;19.74;71.78
74045;BME280;62389;51.412;5.436;2023-06-22T00:54:11;101731.19;;;19.73;70.86
74045;BME280;62389;51.412;5.436;2023-06-22T00:56:40;101732.91;;;19.74;71.12
74045;BME280;62389;51.412;5.436;2023-06-22T00:59:06;101730.97;;;19.76;71.59
74045;BME280;62389;51.412;5.436;2023-06-22T01:01:31;101736.19;;;19.77;71.37
74045;BME280;62389;51.412;5.436;2023-06-22T01:03:57;101739.69;;;19.78;71.80
74045;BME280;62389;51.412;5.436;2023-06-22T01:06:37;101735.25;;;19.78;71.13
74045;BME280;62389;51.412;5.436;2023-06-22T01:09:13;101731.72;;;19.78;71.66
74045;BME280;62389;51.412;5.436;2023-06-22T01:12:07;101730.66;;;19.80;70.57
74045;BME280;62389;51.412;5.436;2023-06-22T01:14:41;101728.88;;;19.81;70.83
74045;BME280;62389;51.412;5.436;2023-06-22T01:17:08;101733.97;;;19.84;70.80
74045;BME280;62389;51.412;5.436;2023-06-22T01:19:55;101718.78;;;19.86;69.92
74045;BME280;62389;51.412;5.436;2023-06-22T01:22:23;101729.28;;;19.87;71.08
74045;BME280;62389;51.412;5.436;2023-06-22T01:25:11;101731.94;;;19.87;70.59
74045;BME280;62389;51.412;5.436;2023-06-22T01:30:15;101739.28;;;19.84;71.14
74045;BME280;62389;51.412;5.436;2023-06-22T01:32:42;101728.44;;;19.87;70.42
74045;BME280;62389;51.412;5.436;2023-06-22T01:35:09;101720.47;;;19.87;70.68
74045;BME280;62389;51.412;5.436;2023-06-22T01:37:36;101722.28;;;19.86;70.69
74045;BME280;62389;51.412;5.436;2023-06-22T01:40:02;101716.13;;;19.86;70.14
74045;BME280;62389;51.412;5.436;2023-06-22T01:42:31;101713.66;;;19.83;71.11
74045;BME280;62389;51.412;5.436;2023-06-22T01:44:57;101716.31;;;19.83;70.87
74045;BME280;62389;51.412;5.436;2023-06-22T01:47:24;101728.88;;;19.81;70.65
74045;BME280;62389;51.412;5.436;2023-06-22T01:49:50;101726.22;;;19.81;71.19
74045;BME280;62389;51.412;5.436;2023-06-22T01:52:19;101716.56;;;19.80;71.86
74045;BME280;62389;51.412;5.436;2023-06-22T01:54:46;101721.22;;;19.76;72.01
74045;BME280;62389;51.412;5.436;2023-06-22T01:57:12;101723.97;;;19.75;72.27
74045;BME280;62389;51.412;5.436;2023-06-22T02:02:10;101719.09;;;19.69;72.24
74045;BME280;62389;51.412;5.436;2023-06-22T02:04:52;101714.09;;;19.64;72.05
74045;BME280;62389;51.412;5.436;2023-06-22T02:07:21;101712.41;;;19.63;71.74
74045;BME280;62389;51.412;5.436;2023-06-22T02:09:51;101708.88;;;19.62;72.22
74045;BME280;62389;51.412;5.436;2023-06-22T02:12:20;101708.16;;;19.60;72.17
74045;BME280;62389;51.412;5.436;2023-06-22T02:14:47;101704.72;;;19.58;72.43
74045;BME280;62389;51.412;5.436;2023-06-22T02:17:13;101713.63;;;19.57;71.93
74045;BME280;62389;51.412;5.436;2023-06-22T02:19:41;101705.88;;;19.54;72.64
74045;BME280;62389;51.412;5.436;2023-06-22T02:22:06;101709.38;;;19.55;72.05
74045;BME280;62389;51.412;5.436;2023-06-22T02:24:32;101704.19;;;19.53;72.73
74045;BME280;62389;51.412;5.436;2023-06-22T02:26:59;101705.13;;;19.52;72.00
74045;BME280;62389;51.412;5.436;2023-06-22T02:29:25;101704.25;;;19.52;71.79
74045;BME280;62389;51.412;5.436;2023-06-22T02:31:50;101693.88;;;19.49;71.89
74045;BME280;62389;51.412;5.436;2023-06-22T02:34:16;101697.38;;;19.49;72.69
74045;BME280;62389;51.412;5.436;2023-06-22T02:36:49;101694.81;;;19.48;71.99
74045;BME280;62389;51.412;5.436;2023-06-22T02:39:21;101685.28;;;19.45;71.93
74045;BME280;62389;51.412;5.436;2023-06-22T02:41:51;101686.13;;;19.46;71.62
74045;BME280;62389;51.412;5.436;2023-06-22T02:44:17;101690.56;;;19.45;71.99
74045;BME280;62389;51.412;5.436;2023-06-22T02:46:43;101688.88;;;19.44;73.04
74045;BME280;62389;51.412;5.436;2023-06-22T02:49:10;101687.56;;;19.37;73.30
74045;BME280;62389;51.412;5.436;2023-06-22T02:51:41;101686.84;;;19.35;74.51
74045;BME280;62389;51.412;5.436;2023-06-22T02:54:06;101686.97;;;19.33;74.29
74045;BME280;62389;51.412;5.436;2023-06-22T02:56:32;101684.38;;;19.32;74.63
74045;BME280;62389;51.412;5.436;2023-06-22T02:58:57;101685.34;;;19.31;74.34
74045;BME280;62389;51.412;5.436;2023-06-22T03:01:27;101685.22;;;19.32;75.16
74045;BME280;62389;51.412;5.436;2023-06-22T03:03:53;101677.72;;;19.39;72.41
74045;BME280;62389;51.412;5.436;2023-06-22T03:06:18;101665.63;;;19.35;74.88
74045;BME280;62389;51.412;5.436;2023-06-22T03:08:51;101666.47;;;19.35;75.64
74045;BME280;62389;51.412;5.436;2023-06-22T03:11:17;101669.13;;;19.35;75.89
74045;BME280;62389;51.412;5.436;2023-06-22T03:13:43;101666.59;;;19.34;75.77
74045;BME280;62389;51.412;5.436;2023-06-22T03:16:08;101655.97;;;19.34;74.97
74045;BME280;62389;51.412;5.436;2023-06-22T03:18:34;101651.50;;;19.34;74.60
74045;BME280;62389;51.412;5.436;2023-06-22T03:20:59;101649.72;;;19.35;74.44
74045;BME280;62389;51.412;5.436;2023-06-22T03:23:27;101641.75;;;19.35;74.44
74045;BME280;62389;51.412;5.436;2023-06-22T03:25:52;101635.59;;;19.34;74.08
74045;BME280;62389;51.412;5.436;2023-06-22T03:28:20;101639.94;;;19.35;73.93
74045;BME280;62389;51.412;5.436;2023-06-22T03:30:46;101634.75;;;19.34;73.36
74045;BME280;62389;51.412;5.436;2023-06-22T03:33:11;101634.75;;;19.34;73.51
74045;BME280;62389;51.412;5.436;2023-06-22T03:35:37;101633.06;;;19.33;72.92
74045;BME280;62389;51.412;5.436;2023-06-22T03:38:02;101630.41;;;19.33;72.90
74045;BME280;62389;51.412;5.436;2023-06-22T03:40:28;101628.59;;;19.33;72.80
74045;BME280;62389;51.412;5.436;2023-06-22T03:42:53;101627.75;;;19.33;73.27
74045;BME280;62389;51.412;5.436;2023-06-22T03:45:18;101624.22;;;19.32;73.32
74045;BME280;62389;51.412;5.436;2023-06-22T03:47:44;101633.25;;;19.30;74.51
74045;BME280;62389;51.412;5.436;2023-06-22T03:50:09;101637.81;;;19.28;74.67
74045;BME280;62389;51.412;5.436;2023-06-22T03:52:35;101634.72;;;19.21;73.91
74045;BME280;62389;51.412;5.436;2023-06-22T03:55:00;101632.91;;;19.22;74.35
74045;BME280;62389;51.412;5.436;2023-06-22T03:57:26;101636.53;;;19.21;74.33
74045;BME280;62389;51.412;5.436;2023-06-22T03:59:51;101638.44;;;19.19;74.98
74045;BME280;62389;51.412;5.436;2023-06-22T04:02:16;101649.97;;;19.18;75.76
74045;BME280;62389;51.412;5.436;2023-06-22T04:04:42;101648.28;;;19.17;74.90
74045;BME280;62389;51.412;5.436;2023-06-22T04:07:07;101641.28;;;19.15;74.80
74045;BME280;62389;51.412;5.436;2023-06-22T04:09:33;101642.13;;;19.16;73.89
74045;BME280;62389;51.412;5.436;2023-06-22T04:11:59;101641.94;;;19.19;73.69
74045;BME280;62389;51.412;5.436;2023-06-22T04:14:24;101638.13;;;19.23;73.78
74045;BME280;62389;51.412;5.436;2023-06-22T04:16:49;101629.09;;;19.26;73.65
74045;BME280;62389;51.412;5.436;2023-06-22T04:19:15;101625.41;;;19.28;73.96
74045;BME280;62389;51.412;5.436;2023-06-22T04:21:43;101629.75;;;19.29;74.49
74045;BME280;62389;51.412;5.436;2023-06-22T04:24:10;101627.00;;;19.31;73.64
74045;BME280;62389;51.412;5.436;2023-06-22T04:26:35;101630.50;;;19.31;74.08
74045;BME280;62389;51.412;5.436;2023-06-22T04:29:03;101641.22;;;19.30;74.47
74045;BME280;62389;51.412;5.436;2023-06-22T04:31:30;101639.28;;;19.32;74.26
74045;BME280;62389;51.412;5.436;2023-06-22T04:33:57;101625.19;;;19.31;73.69
74045;BME280;62389;51.412;5.436;2023-06-22T04:36:22;101631.34;;;19.32;73.37
74045;BME280;62389;51.412;5.436;2023-06-22T04:38:48;101639.41;;;19.30;73.33
74045;BME280;62389;51.412;5.436;2023-06-22T04:41:17;101634.84;;;19.32;73.09
74045;BME280;62389;51.412;5.436;2023-06-22T04:43:48;101636.44;;;19.35;73.63
74045;BME280;62389;51.412;5.436;2023-06-22T04:46:19;101645.06;;;19.38;73.98
74045;BME280;62389;51.412;5.436;2023-06-22T04:48:44;101641.44;;;19.39;72.84
74045;BME280;62389;51.412;5.436;2023-06-22T04:51:09;101638.69;;;19.41;73.52
74045;BME280;62389;51.412;5.436;2023-06-22T04:53:35;101636.66;;;19.45;73.60
74045;BME280;62389;51.412;5.436;2023-06-22T04:56:01;101641.97;;;19.45;73.45
74045;BME280;62389;51.412;5.436;2023-06-22T04:58:29;101635.59;;;19.47;73.96
74045;BME280;62389;51.412;5.436;2023-06-22T05:00:57;101637.31;;;19.48;73.58
74045;BME280;62389;51.412;5.436;2023-06-22T05:03:25;101640.69;;;19.50;73.60
74045;BME280;62389;51.412;5.436;2023-06-22T05:05:51;101637.94;;;19.52;73.59
74045;BME280;62389;51.412;5.436;2023-06-22T05:08:17;101637.72;;;19.55;73.98
74045;BME280;62389;51.412;5.436;2023-06-22T05:10:43;101627.78;;;19.58;73.94
74045;BME280;62389;51.412;5.436;2023-06-22T05:13:08;101631.19;;;19.60;73.80
74045;BME280;62389;51.412;5.436;2023-06-22T05:15:34;101625.69;;;19.63;73.64
74045;BME280;62389;51.412;5.436;2023-06-22T05:18:05;101629.06;;;19.65;74.00
74045;BME280;62389;51.412;5.436;2023-06-22T05:20:30;101624.59;;;19.66;73.94
74045;BME280;62389;51.412;5.436;2023-06-22T05:22:56;101624.59;;;19.66;73.50
74045;BME280;62389;51.412;5.436;2023-06-22T05:25:21;101630.75;;;19.66;74.23
74045;BME280;62389;51.412;5.436;2023-06-22T05:27:47;101635.09;;;19.67;74.60
74045;BME280;62389;51.412;5.436;2023-06-22T05:30:12;101643.06;;;19.67;73.77
74045;BME280;62389;51.412;5.436;2023-06-22T05:32:38;101635.00;;;19.69;73.79
74045;BME280;62389;51.412;5.436;2023-06-22T05:35:03;101631.53;;;19.69;74.26
74045;BME280;62389;51.412;5.436;2023-06-22T05:37:29;101629.59;;;19.71;74.05
74045;BME280;62389;51.412;5.436;2023-06-22T05:39:55;101634.78;;;19.72;73.77
74045;BME280;62389;51.412;5.436;2023-06-22T05:42:21;101633.75;;;19.75;73.93
74045;BME280;62389;51.412;5.436;2023-06-22T05:44:46;101631.81;;;19.77;73.61
74045;BME280;62389;51.412;5.436;2023-06-22T05:47:12;101633.31;;;19.81;74.07
74045;BME280;62389;51.412;5.436;2023-06-22T05:49:37;101632.13;;;19.85;74.28
74045;BME280;62389;51.412;5.436;2023-06-22T05:52:03;101631.06;;;19.87;74.05
74045;BME280;62389;51.412;5.436;2023-06-22T05:54:28;101631.69;;;19.91;74.51
74045;BME280;62389;51.412;5.436;2023-06-22T05:56:54;101642.19;;;19.92;73.75
74045;BME280;62389;51.412;5.436;2023-06-22T05:59:19;101641.16;;;19.95;74.08
74045;BME280;62389;51.412;5.436;2023-06-22T06:01:45;101633.06;;;19.97;76.09
74045;BME280;62389;51.412;5.436;2023-06-22T06:04:15;101630.31;;;19.98;75.69
74045;BME280;62389;51.412;5.436;2023-06-22T06:06:41;101638.06;;;20.01;75.25
74045;BME280;62389;51.412;5.436;2023-06-22T06:09:06;101635.28;;;20.03;75.19
74045;BME280;62389;51.412;5.436;2023-06-22T06:11:33;101627.22;;;20.04;75.20
74045;BME280;62389;51.412;5.436;2023-06-22T06:13:58;101628.81;;;20.07;74.02
74045;BME280;62389;51.412;5.436;2023-06-22T06:16:24;101630.41;;;20.09;75.35
74045;BME280;62389;51.412;5.436;2023-06-22T06:18:49;101633.06;;;20.09;76.25
74045;BME280;62389;51.412;5.436;2023-06-22T06:21:19;101639.22;;;20.10;75.78
74045;BME280;62389;51.412;5.436;2023-06-22T06:23:45;101636.56;;;20.10;76.16
74045;BME280;62389;51.412;5.436;2023-06-22T06:26:10;101642.00;;;20.08;75.56
74045;BME280;62389;51.412;5.436;2023-06-22T06:28:35;101635.81;;;20.08;75.57
74045;BME280;62389;51.412;5.436;2023-06-22T06:31:01;101633.16;;;20.08;75.42
74045;BME280;62389;51.412;5.436;2023-06-22T06:33:26;101627.00;;;20.07;75.93
74045;BME280;62389;51.412;5.436;2023-06-22T06:35:52;101633.28;;;20.06;76.50
74045;BME280;62389;51.412;5.436;2023-06-22T06:38:17;101630.72;;;20.05;75.98
74045;BME280;62389;51.412;5.436;2023-06-22T06:40:43;101634.44;;;20.02;75.65
74045;BME280;62389;51.412;5.436;2023-06-22T06:43:10;101632.97;;;19.98;76.51
74045;BME280;62389;51.412;5.436;2023-06-22T06:45:35;101637.53;;;19.96;76.51
74045;BME280;62389;51.412;5.436;2023-06-22T06:48:01;101628.84;;;19.94;77.58
74045;BME280;62389;51.412;5.436;2023-06-22T06:50:26;101636.03;;;19.92;77.41
74045;BME280;62389;51.412;5.436;2023-06-22T06:52:51;101640.75;;;19.88;77.64
74045;BME280;62389;51.412;5.436;2023-06-22T06:55:17;101647.94;;;19.86;77.75
74045;BME280;62389;51.412;5.436;2023-06-22T06:57:44;101652.53;;;19.84;78.24
74045;BME280;62389;51.412;5.436;2023-06-22T07:00:14;101655.38;;;19.81;77.87
74045;BME280;62389;51.412;5.436;2023-06-22T07:02:41;101653.91;;;19.77;77.83
74045;BME280;62389;51.412;5.436;2023-06-22T07:05:08;101657.50;;;19.76;78.07
74045;BME280;62389;51.412;5.436;2023-06-22T07:07:34;101661.13;;;19.75;77.49
74045;BME280;62389;51.412;5.436;2023-06-22T07:09:59;101652.09;;;19.78;77.19
74045;BME280;62389;51.412;5.436;2023-06-22T07:12:25;101653.91;;;19.77;77.80
74045;BME280;62389;51.412;5.436;2023-06-22T07:14:51;101650.19;;;19.80;78.47
74045;BME280;62389;51.412;5.436;2023-06-22T07:17:17;101643.72;;;19.84;79.50
74045;BME280;62389;51.412;5.436;2023-06-22T07:19:42;101638.09;;;19.88;79.34
74045;BME280;62389;51.412;5.436;2023-06-22T07:22:07;101628.06;;;19.92;79.59
74045;BME280;62389;51.412;5.436;2023-06-22T07:24:33;101616.41;;;19.95;78.88
74045;BME280;62389;51.412;5.436;2023-06-22T07:26:58;101607.38;;;19.97;79.63
74045;BME280;62389;51.412;5.436;2023-06-22T07:29:24;101607.03;;;20.02;80.04
74045;BME280;62389;51.412;5.436;2023-06-22T07:31:50;101605.03;;;20.05;77.46
74045;BME280;62389;51.412;5.436;2023-06-22T07:34:21;101600.34;;;20.09;76.27
74045;BME280;62389;51.412;5.436;2023-06-22T07:36:47;101593.75;;;20.14;76.42
74045;BME280;62389;51.412;5.436;2023-06-22T07:39:12;101593.28;;;20.21;75.09
74045;BME280;62389;51.412;5.436;2023-06-22T07:41:39;101590.94;;;20.29;75.88
74045;BME280;62389;51.412;5.436;2023-06-22T07:44:05;101577.94;;;20.37;75.14
74045;BME280;62389;51.412;5.436;2023-06-22T07:46:31;101570.38;;;20.43;73.97
74045;BME280;62389;51.412;5.436;2023-06-22T07:48:57;101564.31;;;20.54;75.03
74045;BME280;62389;51.412;5.436;2023-06-22T07:51:23;101565.31;;;20.64;75.41
74045;BME280;62389;51.412;5.436;2023-06-22T07:53:49;101557.59;;;20.73;74.98
74045;BME280;62389;51.412;5.436;2023-06-22T07:56:14;101549.19;;;20.79;74.84
74045;BME280;62389;51.412;5.436;2023-06-22T07:58:44;101542.41;;;20.86;73.27
74045;BME280;62389;51.412;5.436;2023-06-22T08:01:10;101528.16;;;20.87;71.62
74045;BME280;62389;51.412;5.436;2023-06-22T08:03:36;101522.50;;;20.91;72.82
74045;BME280;62389;51.412;5.436;2023-06-22T08:06:01;101517.03;;;20.93;71.90
74045;BME280;62389;51.412;5.436;2023-06-22T08:08:27;101510.78;;;20.94;71.34
74045;BME280;62389;51.412;5.436;2023-06-22T08:10:52;101516.94;;;20.94;72.45
74045;BME280;62389;51.412;5.436;2023-06-22T08:13:18;101517.03;;;20.93;72.63
74045;BME280;62389;51.412;5.436;2023-06-22T08:15:44;101507.50;;;20.90;71.61
74045;BME280;62389;51.412;5.436;2023-06-22T08:18:09;101510.28;;;20.89;71.47
74045;BME280;62389;51.412;5.436;2023-06-22T08:20:35;101508.69;;;20.86;72.03
74045;BME280;62389;51.412;5.436;2023-06-22T08:23:00;101514.16;;;20.85;71.81
74045;BME280;62389;51.412;5.436;2023-06-22T08:25:31;101508.06;;;20.83;72.17
74045;BME280;62389;51.412;5.436;2023-06-22T08:27:56;101514.38;;;20.82;73.26
74045;BME280;62389;51.412;5.436;2023-06-22T08:30:21;101517.16;;;20.80;73.72
74045;BME280;62389;51.412;5.436;2023-06-22T08:32:47;101517.28;;;20.79;73.71
74045;BME280;62389;51.412;5.436;2023-06-22T08:35:12;101515.56;;;20.78;73.54
74045;BME280;62389;51.412;5.436;2023-06-22T08:37:37;101513.03;;;20.76;72.14
74045;BME280;62389;51.412;5.436;2023-06-22T08:40:05;101519.31;;;20.75;72.23
74045;BME280;62389;51.412;5.436;2023-06-22T08:42:33;101511.47;;;20.74;71.88
74045;BME280;62389;51.412;5.436;2023-06-22T08:44:58;101516.78;;;20.74;71.60
74045;BME280;62389;51.412;5.436;2023-06-22T08:47:24;101512.31;;;20.74;71.90
74045;BME280;62389;51.412;5.436;2023-06-22T08:49:49;101508.81;;;20.74;71.63
74045;BME280;62389;51.412;5.436;2023-06-22T08:52:15;101507.72;;;20.76;71.85
74045;BME280;62389;51.412;5.436;2023-06-22T08:54:40;101503.09;;;20.78;71.63
74045;BME280;62389;51.412;5.436;2023-06-22T08:57:06;101496.72;;;20.81;72.28
74045;BME280;62389;51.412;5.436;2023-06-22T08:59:31;101495.41;;;20.86;72.17
74045;BME280;62389;51.412;5.436;2023-06-22T09:01:57;101490.47;;;20.93;71.71
74045;BME280;62389;51.412;5.436;2023-06-22T09:04:22;101491.69;;;21.00;72.46
74045;BME280;62389;51.412;5.436;2023-06-22T09:06:48;101495.56;;;21.07;71.24
74045;BME280;62389;51.412;5.436;2023-06-22T09:09:16;101487.97;;;21.14;71.99
74045;BME280;62389;51.412;5.436;2023-06-22T09:11:41;101490.84;;;21.22;71.62
74045;BME280;62389;51.412;5.436;2023-06-22T09:14:07;101486.69;;;21.31;71.96
74045;BME280;62389;51.412;5.436;2023-06-22T09:16:33;101478.19;;;21.37;71.71
74045;BME280;62389;51.412;5.436;2023-06-22T09:18:59;101485.69;;;21.43;70.29
74045;BME280;62389;51.412;5.436;2023-06-22T09:21:24;101482.81;;;21.46;70.16
74045;BME280;62389;51.412;5.436;2023-06-22T09:23:50;101483.50;;;21.48;70.72
74045;BME280;62389;51.412;5.436;2023-06-22T09:26:19;101486.91;;;21.50;71.01
74045;BME280;62389;51.412;5.436;2023-06-22T09:28:44;101477.13;;;21.51;72.01
74045;BME280;62389;51.412;5.436;2023-06-22T09:31:10;101477.25;;;21.49;69.98
74045;BME280;62389;51.412;5.436;2023-06-22T09:33:36;101474.81;;;21.46;69.58
74045;BME280;62389;51.412;5.436;2023-06-22T09:36:04;101479.66;;;21.41;68.32
74045;BME280;62389;51.412;5.436;2023-06-22T09:38:34;101478.19;;;21.37;69.42
74045;BME280;62389;51.412;5.436;2023-06-22T09:41:00;101485.47;;;21.35;69.40
74045;BME280;62389;51.412;5.436;2023-06-22T09:43:25;101478.56;;;21.32;70.34
74045;BME280;62389;51.412;5.436;2023-06-22T09:45:50;101476.88;;;21.31;70.10
74045;BME280;62389;51.412;5.436;2023-06-22T09:48:16;101470.91;;;21.28;69.96
74045;BME280;62389;51.412;5.436;2023-06-22T09:50:41;101476.34;;;21.26;69.89
74045;BME280;62389;51.412;5.436;2023-06-22T09:53:06;101473.94;;;21.23;70.47
74045;BME280;62389;51.412;5.436;2023-06-22T09:55:32;101466.06;;;21.21;70.28
74045;BME280;62389;51.412;5.436;2023-06-22T09:57:57;101467.88;;;21.21;70.09
74045;BME280;62389;51.412;5.436;2023-06-22T10:00:22;101462.69;;;21.19;69.91
74045;BME280;62389;51.412;5.436;2023-06-22T10:02:48;101476.00;;;21.19;69.35
74045;BME280;62389;51.412;5.436;2023-06-22T10:05:13;101472.59;;;21.17;69.68
74045;BME280;62389;51.412;5.436;2023-06-22T10:07:39;101477.91;;;21.17;69.61
74045;BME280;62389;51.412;5.436;2023-06-22T10:10:08;101468.13;;;21.18;70.32
74045;BME280;62389;51.412;5.436;2023-06-22T10:12:33;101477.69;;;21.20;70.37
74045;BME280;62389;51.412;5.436;2023-06-22T10:14:59;101472.59;;;21.17;69.58
74045;BME280;62389;51.412;5.436;2023-06-22T10:17:24;101472.59;;;21.17;69.36
74045;BME280;62389;51.412;5.436;2023-06-22T10:19:49;101477.91;;;21.17;69.85
74045;BME280;62389;51.412;5.436;2023-06-22T10:22:15;101475.25;;;21.17;72.45
74045;BME280;62389;51.412;5.436;2023-06-22T10:24:40;101483.50;;;21.14;71.51
74045;BME280;62389;51.412;5.436;2023-06-22T10:27:10;101483.72;;;21.11;71.59
74045;BME280;62389;51.412;5.436;2023-06-22T10:29:36;101489.25;;;21.08;72.81
74045;BME280;62389;51.412;5.436;2023-06-22T10:32:01;101491.34;;;21.05;73.52
74045;BME280;62389;51.412;5.436;2023-06-22T10:34:27;101502.34;;;21.00;73.86
74045;BME280;62389;51.412;5.436;2023-06-22T10:36:52;101507.88;;;20.97;75.10
74045;BME280;62389;51.412;5.436;2023-06-22T10:39:18;101515.13;;;20.95;74.29
74045;BME280;62389;51.412;5.436;2023-06-22T10:41:43;101530.34;;;20.93;76.74
74045;BME280;62389;51.412;5.436;2023-06-22T10:44:09;101517.16;;;20.91;75.76
74045;BME280;62389;51.412;5.436;2023-06-22T10:46:34;101511.22;;;20.88;79.99
74045;BME280;62389;51.412;5.436;2023-06-22T10:48:59;101508.91;;;20.83;81.57
74045;BME280;62389;51.412;5.436;2023-06-22T10:51:25;101520.38;;;20.73;82.31
74045;BME280;62389;51.412;5.436;2023-06-22T10:53:51;101522.03;;;20.62;83.41
74045;BME280;62389;51.412;5.436;2023-06-22T10:56:17;101521.66;;;20.56;83.95
74045;BME280;62389;51.412;5.436;2023-06-22T10:58:42;101515.22;;;20.47;83.38
74045;BME280;62389;51.412;5.436;2023-06-22T11:01:08;101508.50;;;20.41;83.95
74045;BME280;62389;51.412;5.436;2023-06-22T11:03:33;101514.16;;;20.37;84.65
74045;BME280;62389;51.412;5.436;2023-06-22T11:05:58;101516.31;;;20.32;84.91
74045;BME280;62389;51.412;5.436;2023-06-22T11:08:24;101523.78;;;20.27;85.85
74045;BME280;62389;51.412;5.436;2023-06-22T11:10:51;101534.47;;;20.14;86.30
74045;BME280;62389;51.412;5.436;2023-06-22T11:13:16;101539.81;;;20.01;87.89
74045;BME280;62389;51.412;5.436;2023-06-22T11:15:42;101536.25;;;19.89;89.82
74045;BME280;62389;51.412;5.436;2023-06-22T11:18:07;101526.41;;;19.79;90.76
74045;BME280;62389;51.412;5.436;2023-06-22T11:20:33;101524.50;;;19.68;91.11
74045;BME280;62389;51.412;5.436;2023-06-22T11:23:03;101529.50;;;19.60;91.57
74045;BME280;62389;51.412;5.436;2023-06-22T11:25:29;101530.13;;;19.51;91.75
74045;BME280;62389;51.412;5.436;2023-06-22T11:27:54;101534.78;;;19.47;92.18
74045;BME280;62389;51.412;5.436;2023-06-22T11:30:20;101519.09;;;19.44;92.17
74045;BME280;62389;51.412;5.436;2023-06-22T11:32:45;101516.75;;;19.39;92.51
74045;BME280;62389;51.412;5.436;2023-06-22T11:35:10;101499.47;;;19.34;93.04
74045;BME280;62389;51.412;5.436;2023-06-22T11:37:36;101488.34;;;19.29;93.34
74045;BME280;62389;51.412;5.436;2023-06-22T11:40:01;101493.72;;;19.27;94.14
74045;BME280;62389;51.412;5.436;2023-06-22T11:42:30;101478.78;;;19.26;93.89
74045;BME280;62389;51.412;5.436;2023-06-22T11:44:55;101468.09;;;19.28;94.76
74045;BME280;62389;51.412;5.436;2023-06-22T11:47:21;101466.28;;;19.28;95.30
74045;BME280;62389;51.412;5.436;2023-06-22T11:49:46;101472.31;;;19.30;94.97
74045;BME280;62389;51.412;5.436;2023-06-22T11:52:12;101464.34;;;19.30;95.14
74045;BME280;62389;51.412;5.436;2023-06-22T11:54:37;101464.47;;;19.29;95.73
74045;BME280;62389;51.412;5.436;2023-06-22T11:57:04;101461.81;;;19.29;96.13
74045;BME280;62389;51.412;5.436;2023-06-22T11:59:29;101457.25;;;19.31;95.86
74045;BME280;62389;51.412;5.436;2023-06-22T12:01:54;101439.31;;;19.34;96.24
74045;BME280;62389;51.412;5.436;2023-06-22T12:04:20;101452.25;;;19.39;95.94
74045;BME280;62389;51.412;5.436;2023-06-22T12:06:46;101460.09;;;19.40;95.16
74045;BME280;62389;51.412;5.436;2023-06-22T12:09:11;101458.41;;;19.39;94.59
74045;BME280;62389;51.412;5.436;2023-06-22T12:11:38;101456.72;;;19.38;94.10
74045;BME280;62389;51.412;5.436;2023-06-22T12:14:04;101435.25;;;19.41;94.73
74045;BME280;62389;51.412;5.436;2023-06-22T12:16:29;101432.50;;;19.43;93.85
74045;BME280;62389;51.412;5.436;2023-06-22T12:18:55;101428.91;;;19.44;93.69
74045;BME280;62389;51.412;5.436;2023-06-22T12:21:20;101429.63;;;19.46;93.86
74045;BME280;62389;51.412;5.436;2023-06-22T12:23:45;101432.16;;;19.48;92.67
74045;BME280;62389;51.412;5.436;2023-06-22T12:26:11;101419.75;;;19.48;93.11
74045;BME280;62389;51.412;5.436;2023-06-22T12:28:36;101419.66;;;19.50;93.00
74045;BME280;62389;51.412;5.436;2023-06-22T12:31:02;101417.63;;;19.53;93.52
74045;BME280;62389;51.412;5.436;2023-06-22T12:33:27;101419.41;;;19.53;93.05
74045;BME280;62389;51.412;5.436;2023-06-22T12:35:52;101424.72;;;19.53;93.67
74045;BME280;62389;51.412;5.436;2023-06-22T12:38:17;101426.53;;;19.52;93.44
74045;BME280;62389;51.412;5.436;2023-06-22T12:40:43;101423.78;;;19.54;93.44
74045;BME280;62389;51.412;5.436;2023-06-22T12:43:08;101416.66;;;19.54;93.40
74045;BME280;62389;51.412;5.436;2023-06-22T12:45:34;101422.69;;;19.56;94.13
74045;BME280;62389;51.412;5.436;2023-06-22T12:48:00;101407.75;;;19.55;93.72
74045;BME280;62389;51.412;5.436;2023-06-22T12:50:25;101398.81;;;19.56;93.37